Time;durP1;ratioP1;P1;durP2;ratioP2;P2;SDS_P1;SDS_P2;PMS_P1;PMS_P2;Temp;Humidity;BMP_temperature;BMP_pressure;BME280_temperature;BME280_humidity;BME280_pressure;Samples;Min_cycle;Max_cycle;Signal;HPM_P1;HPM_P2
2022/10/18 00:02:06;;;;;;;0.20;0.20;;;;;;;;;;5004735;28;20037;-90
2022/10/18 00:04:33;;;;;;;0.20;0.10;;;;;;;;;;5019970;28;20087;-92
2022/10/18 00:06:59;;;;;;;0.20;0.10;;;;;;;;;;5002981;28;20045;-91
2022/10/18 00:09:26;;;;;;;0.20;0.10;;;;;;;;;;4986642;28;20616;-90
2022/10/18 00:11:52;;;;;;;0.20;0.10;;;;;;;;;;5005205;28;20132;-90
2022/10/18 00:14:19;;;;;;;0.20;0.10;;;;;;;;;;5021477;28;20034;-90
2022/10/18 00:16:47;;;;;;;0.20;0.10;;;;;;;;;;5036284;22;20076;-85
2022/10/18 00:19:22;;;;;;;0.20;0.10;;;;;;;;;;4996873;28;20057;-85
2022/10/18 00:21:50;;;;;;;0.20;0.10;;;;;;;;;;5009716;28;20033;-85
2022/10/18 00:24:19;;;;;;;0.20;0.10;;;;;;;;;;5020775;28;20506;-85
2022/10/18 00:26:45;;;;;;;0.20;0.10;;;;;;;;;;5008620;28;20033;-85
2022/10/18 00:29:21;;;;;;;0.20;0.10;;;;;;;;;;4996984;28;20079;-85
2022/10/18 00:31:58;;;;;;;0.20;0.10;;;;;;;;;;5010526;28;20510;-85
2022/10/18 00:34:42;;;;;;;0.20;0.10;;;;;;;;;;5021868;28;20063;-85
2022/10/18 00:37:14;;;;;;;0.20;0.10;;;;;;;;;;5013699;28;21430;-85
2022/10/18 00:39:52;;;;;;;0.20;0.10;;;;;;;;;;5018822;28;20045;-86
2022/10/18 00:42:26;;;;;;;0.20;0.10;;;;;;;;;;5025225;28;20086;-85
2022/10/18 00:44:52;;;;;;;0.20;0.10;;;;;;;;;;5013551;28;22311;-85
2022/10/18 00:47:26;;;;;;;0.20;0.10;;;;;;;;;;5008730;28;20735;-85
2022/10/18 00:50:14;;;;;;;0.20;0.10;;;;;;;;;;5001657;28;20519;-85
2022/10/18 00:53:04;;;;;;;0.20;0.10;;;;;;;;;;5033207;28;20044;-86
2022/10/18 00:56:03;;;;;;;0.20;0.10;;;;;;;;;;4995235;28;20049;-85
2022/10/18 00:59:06;;;;;;;0.25;0.15;;;;;;;;;;4983834;28;20462;-85
2022/10/18 01:01:40;;;;;;;0.20;0.10;;;;;;;;;;4973145;28;20059;-85
2022/10/18 01:11:06;;;;;;;0.20;0.10;;;;;;;;;;4975093;28;20052;-85
2022/10/18 01:13:51;;;;;;;0.20;0.15;;;;;;;;;;5016896;28;20060;-85
2022/10/18 01:16:23;;;;;;;0.20;0.03;;;;;;;;;;5016969;28;20036;-85
2022/10/18 01:19:27;;;;;;;0.20;0.10;;;;;;;;;;5001995;28;20083;-85
2022/10/18 01:21:54;;;;;;;0.20;0.10;;;;;;;;;;4995629;28;20090;-85
2022/10/18 01:24:20;;;;;;;0.20;0.10;;;;;;;;;;5004930;28;20811;-85
2022/10/18 01:27:12;;;;;;;0.20;0.10;;;;;;;;;;5008690;28;20495;-85
2022/10/18 01:29:56;;;;;;;0.20;0.10;;;;;;;;;;5023473;28;20049;-85
2022/10/18 01:39:15;;;;;;;0.20;0.10;;;;;;;;;;5051493;22;20044;-86
2022/10/18 01:47:56;;;;;;;0.40;0.20;;;;;;;;;;4969481;28;20045;-86
2022/10/18 01:50:33;;;;;;;0.20;0.10;;;;;;;;;;4994465;22;20037;-87
2022/10/18 01:52:59;;;;;;;0.20;0.10;;;;;;;;;;5041335;28;20459;-87
2022/10/18 01:55:40;;;;;;;0.20;0.10;;;;;;;;;;5029168;28;20047;-84
2022/10/18 01:58:09;;;;;;;0.20;0.10;;;;;;;;;;5024668;28;20040;-88
2022/10/18 02:00:41;;;;;;;0.20;0.10;;;;;;;;;;5027778;28;20561;-88
2022/10/18 02:03:07;;;;;;;0.20;0.10;;;;;;;;;;5038308;28;20051;-87
2022/10/18 02:05:37;;;;;;;0.20;0.10;;;;;;;;;;5042015;28;20041;-86
2022/10/18 02:08:09;;;;;;;0.20;0.20;;;;;;;;;;5024819;28;20076;-87
2022/10/18 02:10:38;;;;;;;0.20;0.13;;;;;;;;;;5023711;28;20048;-87
2022/10/18 02:13:04;;;;;;;0.20;0.10;;;;;;;;;;5024400;28;20040;-88
2022/10/18 02:15:34;;;;;;;0.20;0.05;;;;;;;;;;5019886;28;20037;-88
2022/10/18 02:18:01;;;;;;;0.20;0.10;;;;;;;;;;5035567;28;20091;-87
2022/10/18 02:20:27;;;;;;;0.20;0.10;;;;;;;;;;5039023;28;20576;-86
2022/10/18 02:22:55;;;;;;;0.20;0.10;;;;;;;;;;5035580;28;20130;-87
2022/10/18 02:25:23;;;;;;;0.20;0.10;;;;;;;;;;5032558;28;20063;-87
2022/10/18 02:27:50;;;;;;;0.20;0.10;;;;;;;;;;5027158;28;20032;-88
2022/10/18 02:30:16;;;;;;;0.20;0.20;;;;;;;;;;5011689;28;20108;-86
2022/10/18 02:32:52;;;;;;;0.20;0.10;;;;;;;;;;5028958;28;20487;-85
2022/10/18 02:35:21;;;;;;;0.20;0.20;;;;;;;;;;5037721;28;20049;-85
2022/10/18 02:37:48;;;;;;;0.20;0.10;;;;;;;;;;5024087;28;20717;-84
2022/10/18 02:40:15;;;;;;;0.20;0.10;;;;;;;;;;5012128;28;20288;-86
2022/10/18 02:42:44;;;;;;;0.20;0.10;;;;;;;;;;5038292;28;20045;-86
2022/10/18 02:45:11;;;;;;;0.20;0.10;;;;;;;;;;5040458;28;20047;-86
2022/10/18 02:47:37;;;;;;;0.20;0.10;;;;;;;;;;5027005;28;20053;-87
2022/10/18 02:50:03;;;;;;;0.20;0.10;;;;;;;;;;5023159;28;20043;-86
2022/10/18 02:52:29;;;;;;;0.20;0.10;;;;;;;;;;5026603;28;20032;-84
2022/10/18 02:54:55;;;;;;;0.20;0.10;;;;;;;;;;5019075;28;20377;-86
2022/10/18 02:57:21;;;;;;;0.20;0.10;;;;;;;;;;5035510;28;20048;-85
2022/10/18 02:59:47;;;;;;;0.20;0.03;;;;;;;;;;5037198;28;20185;-86
2022/10/18 03:02:13;;;;;;;0.20;0.10;;;;;;;;;;5022426;28;20047;-84
2022/10/18 03:04:39;;;;;;;0.20;0.10;;;;;;;;;;5027139;28;20106;-83
2022/10/18 03:07:08;;;;;;;0.20;0.10;;;;;;;;;;5040522;28;20044;-84
2022/10/18 03:09:34;;;;;;;0.20;0.10;;;;;;;;;;5023505;28;20094;-86
2022/10/18 03:12:00;;;;;;;0.20;0.03;;;;;;;;;;5027041;28;20037;-85
2022/10/18 03:14:26;;;;;;;0.20;0.10;;;;;;;;;;5043270;28;21282;-84
2022/10/18 03:16:52;;;;;;;0.20;0.10;;;;;;;;;;5040394;28;20044;-85
2022/10/18 03:19:18;;;;;;;0.20;0.10;;;;;;;;;;5010715;28;20414;-85
2022/10/18 03:21:44;;;;;;;0.20;0.10;;;;;;;;;;5026443;28;20040;-85
2022/10/18 03:24:10;;;;;;;0.20;0.10;;;;;;;;;;5026393;28;20083;-86
2022/10/18 03:26:36;;;;;;;0.20;0.10;;;;;;;;;;5018950;28;20119;-85
2022/10/18 03:29:03;;;;;;;0.20;0.10;;;;;;;;;;5039208;28;20444;-84
2022/10/18 03:31:29;;;;;;;0.20;0.10;;;;;;;;;;5020896;28;20036;-85
2022/10/18 03:33:55;;;;;;;0.20;0.10;;;;;;;;;;5021006;28;20045;-85
2022/10/18 03:36:21;;;;;;;0.20;0.00;;;;;;;;;;5017774;28;20099;-84
2022/10/18 03:38:47;;;;;;;0.20;0.10;;;;;;;;;;5018956;28;20040;-85
2022/10/18 03:41:13;;;;;;;0.20;0.10;;;;;;;;;;5011480;28;20041;-84
2022/10/18 03:43:39;;;;;;;0.20;0.10;;;;;;;;;;5020083;28;20114;-85
2022/10/18 03:46:05;;;;;;;0.20;0.10;;;;;;;;;;5024301;28;20047;-85
2022/10/18 03:48:31;;;;;;;0.20;0.10;;;;;;;;;;5026136;28;20123;-85
2022/10/18 03:50:57;;;;;;;0.20;0.10;;;;;;;;;;5029755;28;20198;-85
2022/10/18 03:53:23;;;;;;;0.20;0.10;;;;;;;;;;5009788;28;20047;-84
2022/10/18 03:55:50;;;;;;;0.20;0.10;;;;;;;;;;5019709;28;20040;-85
2022/10/18 03:58:16;;;;;;;0.20;0.10;;;;;;;;;;5011738;28;20052;-84
2022/10/18 04:00:42;;;;;;;0.20;0.10;;;;;;;;;;5010808;28;20051;-84
2022/10/18 04:03:09;;;;;;;0.20;0.10;;;;;;;;;;5019976;28;20090;-85
2022/10/18 04:05:35;;;;;;;0.25;0.25;;;;;;;;;;5034864;28;20051;-84
2022/10/18 04:08:01;;;;;;;0.35;0.17;;;;;;;;;;5011892;28;20076;-85
2022/10/18 04:10:27;;;;;;;0.20;0.10;;;;;;;;;;5008137;28;20040;-85
2022/10/18 04:12:53;;;;;;;0.28;0.20;;;;;;;;;;5021566;28;20041;-85
2022/10/18 04:15:20;;;;;;;0.20;0.15;;;;;;;;;;5020753;28;20211;-85
2022/10/18 04:17:46;;;;;;;0.20;0.10;;;;;;;;;;5010271;28;20044;-84
2022/10/18 04:20:12;;;;;;;0.20;0.10;;;;;;;;;;5026931;28;20036;-85
2022/10/18 04:22:38;;;;;;;0.20;0.10;;;;;;;;;;5023959;28;20041;-85
2022/10/18 04:25:05;;;;;;;0.20;0.10;;;;;;;;;;5008805;28;20037;-84
2022/10/18 04:27:31;;;;;;;0.20;0.10;;;;;;;;;;5019842;28;20416;-84
2022/10/18 04:29:57;;;;;;;0.20;0.10;;;;;;;;;;5016340;28;20490;-83
2022/10/18 04:32:23;;;;;;;0.20;0.10;;;;;;;;;;5012099;28;20593;-84
2022/10/18 04:34:49;;;;;;;0.20;0.10;;;;;;;;;;5018519;28;21513;-85
2022/10/18 04:37:16;;;;;;;0.20;0.10;;;;;;;;;;5009277;28;20291;-85
2022/10/18 04:39:45;;;;;;;0.20;0.10;;;;;;;;;;5017321;28;20044;-85
2022/10/18 04:42:12;;;;;;;0.20;0.10;;;;;;;;;;5010796;28;20040;-84
2022/10/18 04:44:38;;;;;;;0.20;0.10;;;;;;;;;;5012351;28;20412;-85
2022/10/18 04:47:04;;;;;;;0.20;0.10;;;;;;;;;;5034703;28;20057;-85
2022/10/18 04:49:30;;;;;;;0.20;0.10;;;;;;;;;;5035397;28;20045;-86
2022/10/18 04:51:56;;;;;;;0.20;0.10;;;;;;;;;;5026887;28;20037;-84
2022/10/18 04:54:22;;;;;;;0.20;0.10;;;;;;;;;;5009353;28;20051;-85
2022/10/18 04:56:48;;;;;;;0.20;0.10;;;;;;;;;;5016645;28;20123;-85
2022/10/18 04:59:15;;;;;;;0.20;0.10;;;;;;;;;;5026806;28;20044;-85
2022/10/18 05:01:41;;;;;;;0.20;0.10;;;;;;;;;;5049260;28;20519;-85
2022/10/18 05:04:07;;;;;;;0.20;0.10;;;;;;;;;;5048232;28;20447;-85
2022/10/18 05:06:33;;;;;;;0.20;0.10;;;;;;;;;;5018734;28;20353;-85
2022/10/18 05:08:59;;;;;;;0.20;0.10;;;;;;;;;;5018217;28;20145;-85
2022/10/18 05:11:25;;;;;;;0.20;0.10;;;;;;;;;;5025492;28;20059;-86
2022/10/18 05:13:51;;;;;;;0.20;0.10;;;;;;;;;;5011461;28;20037;-86
2022/10/18 05:16:17;;;;;;;0.20;0.10;;;;;;;;;;5040493;28;20467;-86
2022/10/18 05:18:43;;;;;;;0.20;0.10;;;;;;;;;;5011772;28;20154;-86
2022/10/18 05:21:11;;;;;;;0.20;0.10;;;;;;;;;;5021477;28;20036;-86
2022/10/18 05:23:37;;;;;;;0.20;0.10;;;;;;;;;;5028927;28;20058;-84
2022/10/18 05:26:05;;;;;;;0.20;0.10;;;;;;;;;;5047631;28;20071;-86
2022/10/18 05:28:31;;;;;;;0.20;0.10;;;;;;;;;;5030193;28;20136;-86
2022/10/18 05:31:04;;;;;;;0.20;0.10;;;;;;;;;;5047300;28;20040;-86
2022/10/18 05:33:31;;;;;;;0.20;0.10;;;;;;;;;;5023954;28;20072;-86
2022/10/18 05:35:57;;;;;;;0.20;0.10;;;;;;;;;;5039565;28;20072;-84
2022/10/18 05:38:23;;;;;;;0.20;0.10;;;;;;;;;;5030747;28;20029;-85
2022/10/18 05:40:49;;;;;;;0.20;0.10;;;;;;;;;;5022508;28;20071;-85
2022/10/18 05:43:16;;;;;;;0.20;0.10;;;;;;;;;;5009278;28;20040;-85
2022/10/18 05:45:49;;;;;;;0.20;0.10;;;;;;;;;;5034879;28;20037;-85
2022/10/18 05:48:15;;;;;;;0.28;0.20;;;;;;;;;;5029832;28;20048;-86
2022/10/18 05:50:41;;;;;;;0.20;0.10;;;;;;;;;;5026440;28;20446;-85
2022/10/18 05:53:07;;;;;;;0.20;0.10;;;;;;;;;;5024616;28;20033;-87
2022/10/18 05:55:33;;;;;;;0.20;0.20;;;;;;;;;;5024321;28;20037;-84
2022/10/18 05:57:59;;;;;;;0.20;0.10;;;;;;;;;;5017925;28;20471;-86
2022/10/18 06:00:25;;;;;;;0.20;0.10;;;;;;;;;;5022906;28;20040;-85
2022/10/18 06:02:52;;;;;;;0.20;0.10;;;;;;;;;;5026668;28;20045;-85
2022/10/18 06:05:18;;;;;;;0.20;0.10;;;;;;;;;;5004880;28;20269;-86
2022/10/18 06:07:44;;;;;;;0.20;0.10;;;;;;;;;;5009046;28;20143;-86
2022/10/18 06:10:10;;;;;;;0.20;0.10;;;;;;;;;;5024353;28;20055;-83
2022/10/18 06:12:36;;;;;;;0.20;0.10;;;;;;;;;;5028887;28;20028;-86
2022/10/18 06:15:02;;;;;;;0.20;0.20;;;;;;;;;;5024172;28;20088;-85
2022/10/18 06:17:28;;;;;;;0.50;0.30;;;;;;;;;;5021750;28;20064;-85
2022/10/18 06:19:54;;;;;;;0.20;0.10;;;;;;;;;;5019083;28;20090;-86
2022/10/18 06:22:20;;;;;;;0.20;0.10;;;;;;;;;;5014974;28;20028;-85
2022/10/18 06:24:46;;;;;;;0.20;0.10;;;;;;;;;;5037719;28;20041;-85
2022/10/18 06:27:12;;;;;;;0.20;0.10;;;;;;;;;;5032671;28;20409;-86
2022/10/18 06:29:39;;;;;;;0.20;0.10;;;;;;;;;;5029109;28;20040;-84
2022/10/18 06:32:07;;;;;;;0.20;0.10;;;;;;;;;;5032655;28;20064;-85
2022/10/18 06:34:33;;;;;;;0.20;0.10;;;;;;;;;;5032081;28;20546;-86
2022/10/18 06:36:59;;;;;;;0.20;0.10;;;;;;;;;;5033195;28;20068;-84
2022/10/18 06:39:26;;;;;;;0.20;0.10;;;;;;;;;;5050953;28;20128;-86
2022/10/18 06:41:52;;;;;;;0.20;0.10;;;;;;;;;;5049751;28;20165;-85
2022/10/18 06:44:18;;;;;;;0.20;0.10;;;;;;;;;;5035579;28;20044;-86
2022/10/18 06:46:45;;;;;;;0.20;0.10;;;;;;;;;;5030912;28;20044;-86
2022/10/18 06:49:13;;;;;;;0.20;0.10;;;;;;;;;;5019082;28;20041;-85
2022/10/18 06:51:39;;;;;;;0.20;0.10;;;;;;;;;;5035377;28;20045;-86
2022/10/18 06:54:05;;;;;;;0.20;0.10;;;;;;;;;;5040691;28;20060;-85
2022/10/18 06:56:31;;;;;;;0.20;0.10;;;;;;;;;;5033124;28;20051;-86
2022/10/18 06:58:57;;;;;;;0.20;0.10;;;;;;;;;;5037686;28;20048;-86
2022/10/18 07:01:23;;;;;;;0.20;0.10;;;;;;;;;;5047697;28;20097;-85
2022/10/18 07:03:52;;;;;;;0.20;0.10;;;;;;;;;;5020232;28;20040;-86
2022/10/18 07:06:18;;;;;;;0.20;0.10;;;;;;;;;;5048032;28;20398;-86
2022/10/18 07:08:45;;;;;;;0.20;0.10;;;;;;;;;;5045727;28;20546;-86
2022/10/18 07:11:16;;;;;;;0.20;0.10;;;;;;;;;;5049077;28;20036;-84
2022/10/18 07:13:42;;;;;;;0.20;0.10;;;;;;;;;;5035481;28;20558;-85
2022/10/18 07:16:09;;;;;;;0.20;0.10;;;;;;;;;;5048410;28;20114;-85
2022/10/18 07:18:37;;;;;;;0.20;0.10;;;;;;;;;;5028609;28;20109;-85
2022/10/18 07:21:08;;;;;;;0.20;0.10;;;;;;;;;;5032516;28;20040;-84
2022/10/18 07:23:35;;;;;;;0.20;0.10;;;;;;;;;;5050404;28;20523;-83
2022/10/18 07:26:02;;;;;;;0.20;0.10;;;;;;;;;;5044847;28;20037;-84
2022/10/18 07:28:29;;;;;;;0.20;0.10;;;;;;;;;;5053383;28;20037;-83
2022/10/18 07:30:55;;;;;;;0.20;0.10;;;;;;;;;;5048251;28;20147;-85
2022/10/18 07:33:22;;;;;;;0.20;0.10;;;;;;;;;;5016792;28;20036;-84
2022/10/18 07:35:48;;;;;;;0.20;0.10;;;;;;;;;;5033940;28;20072;-84
2022/10/18 07:38:14;;;;;;;0.20;0.10;;;;;;;;;;5033486;28;20162;-84
2022/10/18 07:40:40;;;;;;;0.20;0.10;;;;;;;;;;5031983;28;20045;-87
2022/10/18 07:43:06;;;;;;;0.20;0.10;;;;;;;;;;5030848;28;20040;-82
2022/10/18 07:45:32;;;;;;;0.20;0.10;;;;;;;;;;5032165;28;20028;-86
2022/10/18 07:47:58;;;;;;;0.20;0.10;;;;;;;;;;5031822;28;20182;-86
2022/10/18 07:50:24;;;;;;;0.20;0.10;;;;;;;;;;5030506;28;20040;-89
2022/10/18 07:52:57;;;;;;;0.20;0.10;;;;;;;;;;5046574;22;21224;-84
2022/10/18 07:55:31;;;;;;;0.20;0.10;;;;;;;;;;5040331;28;20390;-85
2022/10/18 07:58:02;;;;;;;0.20;0.10;;;;;;;;;;5022279;28;20071;-86
2022/10/18 08:00:31;;;;;;;0.20;0.10;;;;;;;;;;5029631;28;20072;-83
2022/10/18 08:03:03;;;;;;;0.20;0.10;;;;;;;;;;4992672;28;20076;-84
2022/10/18 08:05:33;;;;;;;0.20;0.10;;;;;;;;;;4950510;28;20081;-84
2022/10/18 08:08:09;;;;;;;0.20;0.10;;;;;;;;;;4961731;28;20098;-84
2022/10/18 08:10:35;;;;;;;0.20;0.10;;;;;;;;;;4949660;28;20073;-82
2022/10/18 08:13:06;;;;;;;0.20;0.10;;;;;;;;;;4946535;28;20078;-86
2022/10/18 08:15:42;;;;;;;0.20;0.10;;;;;;;;;;4966172;28;20047;-85
2022/10/18 08:18:13;;;;;;;0.20;0.10;;;;;;;;;;4957195;28;20178;-85
2022/10/18 08:20:46;;;;;;;0.20;0.10;;;;;;;;;;4932758;28;20077;-86
2022/10/18 08:23:12;;;;;;;0.20;0.10;;;;;;;;;;4929970;28;20058;-84
2022/10/18 08:25:41;;;;;;;0.20;0.10;;;;;;;;;;4927353;28;20549;-83
2022/10/18 08:28:07;;;;;;;0.20;0.10;;;;;;;;;;4930419;28;20440;-86
2022/10/18 08:30:34;;;;;;;0.20;0.10;;;;;;;;;;4930214;28;20245;-85
2022/10/18 08:33:00;;;;;;;0.43;0.25;;;;;;;;;;4928974;28;20133;-86
2022/10/18 08:35:26;;;;;;;0.70;0.40;;;;;;;;;;4930645;28;20047;-85
2022/10/18 08:38:02;;;;;;;0.20;0.10;;;;;;;;;;4982744;28;20284;-85
2022/10/18 08:43:27;;;;;;;0.20;0.10;;;;;;;;;;4990157;28;20050;-85
2022/10/18 08:45:54;;;;;;;0.20;0.10;;;;;;;;;;4983414;28;20040;-84
2022/10/18 08:48:23;;;;;;;0.20;0.10;;;;;;;;;;4987495;28;20068;-84
2022/10/18 08:50:56;;;;;;;0.20;0.10;;;;;;;;;;4984032;28;20541;-86
2022/10/18 08:53:22;;;;;;;0.20;0.20;;;;;;;;;;4987651;28;20068;-86
2022/10/18 08:56:25;;;;;;;0.20;0.10;;;;;;;;;;4990623;28;20053;-85
2022/10/18 08:58:51;;;;;;;;;;;;;;;;;;4993368;28;20056;-84
2022/10/18 09:01:35;;;;;;;0.20;0.10;;;;;;;;;;5004189;28;20004;-84
2022/10/18 09:04:01;;;;;;;0.20;0.10;;;;;;;;;;5018767;28;20451;-85
2022/10/18 09:06:33;;;;;;;0.20;0.10;;;;;;;;;;5011145;28;20135;-85
2022/10/18 09:09:05;;;;;;;0.20;0.10;;;;;;;;;;5019112;28;20052;-84
2022/10/18 09:11:54;;;;;;;0.20;0.10;;;;;;;;;;5018972;28;20037;-86
2022/10/18 09:14:41;;;;;;;0.20;0.10;;;;;;;;;;5019089;28;20041;-85
2022/10/18 09:17:10;;;;;;;0.20;0.10;;;;;;;;;;5012014;28;20045;-84
2022/10/18 09:19:36;;;;;;;0.20;0.10;;;;;;;;;;5002291;28;20037;-85
2022/10/18 09:22:13;;;;;;;0.20;0.10;;;;;;;;;;5019568;28;20041;-84
2022/10/18 09:24:41;;;;;;;0.20;0.10;;;;;;;;;;5003823;28;20068;-84
2022/10/18 09:27:17;;;;;;;0.20;0.10;;;;;;;;;;5004757;28;20064;-83
2022/10/18 09:29:47;;;;;;;0.20;0.10;;;;;;;;;;4981696;28;20044;-86
2022/10/18 09:32:26;;;;;;;0.20;0.20;;;;;;;;;;5025777;28;20037;-84
2022/10/18 09:35:01;;;;;;;0.20;0.10;;;;;;;;;;5004479;28;20403;-84
2022/10/18 09:37:28;;;;;;;0.20;0.10;;;;;;;;;;5025418;28;20549;-84
2022/10/18 09:39:58;;;;;;;0.20;0.10;;;;;;;;;;4994576;28;20090;-86
2022/10/18 09:42:34;;;;;;;0.20;0.10;;;;;;;;;;4996147;28;20037;-84
2022/10/18 09:45:06;;;;;;;0.20;0.10;;;;;;;;;;5021039;28;20051;-86
2022/10/18 09:47:44;;;;;;;0.20;0.10;;;;;;;;;;5003074;28;20782;-85
2022/10/18 09:50:32;;;;;;;0.20;0.10;;;;;;;;;;5020763;28;20406;-86
2022/10/18 09:53:01;;;;;;;0.20;0.10;;;;;;;;;;4995067;28;20064;-85
2022/10/18 09:55:30;;;;;;;0.20;0.10;;;;;;;;;;5007339;28;20087;-83
2022/10/18 09:57:59;;;;;;;0.20;0.10;;;;;;;;;;5006551;28;20132;-84
2022/10/18 10:00:27;;;;;;;0.20;0.10;;;;;;;;;;5025763;28;20045;-84
2022/10/18 10:02:54;;;;;;;0.20;0.10;;;;;;;;;;5026968;28;20038;-84
2022/10/18 10:05:20;;;;;;;0.20;0.10;;;;;;;;;;5008885;28;20434;-85
2022/10/18 10:07:47;;;;;;;0.20;0.10;;;;;;;;;;4997548;28;20033;-84
2022/10/18 10:10:20;;;;;;;0.20;0.10;;;;;;;;;;5014233;28;20154;-83
2022/10/18 10:12:46;;;;;;;0.20;0.10;;;;;;;;;;5008965;28;20120;-84
2022/10/18 10:15:21;;;;;;;0.20;0.10;;;;;;;;;;5001444;28;20088;-84
2022/10/18 10:17:59;;;;;;;0.20;0.10;;;;;;;;;;5008538;28;20030;-85
2022/10/18 10:20:28;;;;;;;0.20;0.10;;;;;;;;;;5022516;28;20034;-83
2022/10/18 10:23:05;;;;;;;0.20;0.10;;;;;;;;;;5022905;28;20041;-85
2022/10/18 10:25:37;;;;;;;0.20;0.10;;;;;;;;;;5022909;28;20506;-84
2022/10/18 10:28:24;;;;;;;0.20;0.10;;;;;;;;;;5009086;28;20072;-85
2022/10/18 10:30:50;;;;;;;0.20;0.10;;;;;;;;;;5023043;28;20041;-87
2022/10/18 10:33:36;;;;;;;0.20;0.10;;;;;;;;;;5023648;28;20330;-84
2022/10/18 10:36:04;;;;;;;0.20;0.10;;;;;;;;;;5008023;28;20045;-84
2022/10/18 10:38:31;;;;;;;0.20;0.10;;;;;;;;;;5005297;28;20140;-82
2022/10/18 10:40:57;;;;;;;0.20;0.10;;;;;;;;;;4992688;28;20152;-85
2022/10/18 10:43:33;;;;;;;0.20;0.10;;;;;;;;;;5007865;28;20032;-83
2022/10/18 10:46:17;;;;;;;0.20;0.10;;;;;;;;;;5010231;28;20468;-84
2022/10/18 10:48:58;;;;;;;0.20;0.10;;;;;;;;;;5022117;28;20103;-85
2022/10/18 10:51:29;;;;;;;0.20;0.10;;;;;;;;;;5021362;28;20041;-83
2022/10/18 10:54:14;;;;;;;0.20;0.10;;;;;;;;;;5020766;28;20041;-83
2022/10/18 10:56:53;;;;;;;0.20;0.10;;;;;;;;;;5020157;28;20420;-85
2022/10/18 10:59:20;;;;;;;0.20;0.10;;;;;;;;;;5008232;28;20061;-86
2022/10/18 11:01:49;;;;;;;0.20;0.10;;;;;;;;;;5007057;28;20128;-84
2022/10/18 11:04:30;;;;;;;0.20;0.10;;;;;;;;;;5023463;28;20041;-84
2022/10/18 11:07:06;;;;;;;0.20;0.10;;;;;;;;;;4982036;28;20150;-84
2022/10/18 11:09:45;;;;;;;0.20;0.10;;;;;;;;;;5019875;28;20645;-84
2022/10/18 11:12:16;;;;;;;0.20;0.10;;;;;;;;;;5023448;28;20036;-84
2022/10/18 11:14:44;;;;;;;0.20;0.10;;;;;;;;;;5022003;28;20515;-84
2022/10/18 11:17:21;;;;;;;0.20;0.10;;;;;;;;;;5020992;28;20068;-82
2022/10/18 11:20:11;;;;;;;0.20;0.10;;;;;;;;;;5022072;28;20060;-82
2022/10/18 11:22:43;;;;;;;0.20;0.10;;;;;;;;;;5025147;28;20781;-83
2022/10/18 11:25:12;;;;;;;0.20;0.10;;;;;;;;;;5025677;28;20034;-80
2022/10/18 11:27:43;;;;;;;0.20;0.10;;;;;;;;;;5018885;28;20042;-83
2022/10/18 11:30:21;;;;;;;0.20;0.10;;;;;;;;;;5005884;28;20117;-83
2022/10/18 11:32:47;;;;;;;0.20;0.10;;;;;;;;;;4993966;28;20044;-81
2022/10/18 11:35:16;;;;;;;0.20;0.10;;;;;;;;;;4998277;28;20263;-83
2022/10/18 11:37:52;;;;;;;0.20;0.10;;;;;;;;;;4995797;28;20100;-82
2022/10/18 11:40:53;;;;;;;0.20;0.10;;;;;;;;;;4998007;28;20045;-82
2022/10/18 11:43:40;;;;;;;0.20;0.10;;;;;;;;;;4930569;28;20046;-85
2022/10/18 11:46:21;;;;;;;0.20;0.10;;;;;;;;;;5020019;28;20423;-82
2022/10/18 11:48:56;;;;;;;0.20;0.10;;;;;;;;;;5005443;28;20071;-84
2022/10/18 11:51:37;;;;;;;0.20;0.10;;;;;;;;;;4993945;28;20380;-82
2022/10/18 11:54:10;;;;;;;0.20;0.10;;;;;;;;;;5005988;28;20040;-84
2022/10/18 11:56:36;;;;;;;;;;;;;;;;;;4995506;28;20045;-82
2022/10/18 11:59:12;;;;;;;0.20;0.10;;;;;;;;;;5025113;28;20187;-84
2022/10/18 12:02:05;;;;;;;0.20;0.10;;;;;;;;;;5011130;28;20060;-79
2022/10/18 12:04:36;;;;;;;0.20;0.10;;;;;;;;;;5005651;28;20349;-85
2022/10/18 12:07:04;;;;;;;0.20;0.10;;;;;;;;;;4993901;28;20045;-82
2022/10/18 12:09:34;;;;;;;0.20;0.10;;;;;;;;;;4996871;28;20037;-84
2022/10/18 12:12:02;;;;;;;0.20;0.10;;;;;;;;;;5007361;28;20149;-82
2022/10/18 12:14:43;;;;;;;0.20;0.10;;;;;;;;;;4994644;28;20120;-81
2022/10/18 12:17:18;;;;;;;0.20;0.10;;;;;;;;;;5026149;28;20041;-81
2022/10/18 12:19:45;;;;;;;0.20;0.10;;;;;;;;;;5020939;28;20150;-80
2022/10/18 12:22:16;;;;;;;0.20;0.10;;;;;;;;;;4996203;28;20052;-83
2022/10/18 12:24:42;;;;;;;0.20;0.10;;;;;;;;;;5008823;28;20165;-82
2022/10/18 12:27:11;;;;;;;0.20;0.10;;;;;;;;;;5022963;28;20045;-83
2022/10/18 12:29:49;;;;;;;0.20;0.10;;;;;;;;;;5022865;28;20458;-81
2022/10/18 12:32:17;;;;;;;0.20;0.10;;;;;;;;;;5022122;28;20041;-84
2022/10/18 12:34:46;;;;;;;0.20;0.10;;;;;;;;;;4997275;28;20196;-83
2022/10/18 12:37:21;;;;;;;0.20;0.10;;;;;;;;;;5021161;28;20134;-83
2022/10/18 12:39:50;;;;;;;0.20;0.10;;;;;;;;;;5025026;28;20033;-82
2022/10/18 12:42:21;;;;;;;0.20;0.10;;;;;;;;;;5022206;28;20125;-83
2022/10/18 12:44:47;;;;;;;0.20;0.10;;;;;;;;;;5024017;28;20466;-82
2022/10/18 12:47:23;;;;;;;0.20;0.10;;;;;;;;;;5026312;28;20076;-83
2022/10/18 12:49:57;;;;;;;0.20;0.10;;;;;;;;;;4995373;28;20375;-83
2022/10/18 12:52:24;;;;;;;0.20;0.10;;;;;;;;;;4992612;28;20037;-82
2022/10/18 12:55:26;;;;;;;0.20;0.10;;;;;;;;;;5023357;28;20043;-82
2022/10/18 12:57:52;;;;;;;0.20;0.10;;;;;;;;;;5008267;28;20428;-83
2022/10/18 13:00:41;;;;;;;0.20;0.10;;;;;;;;;;4994788;28;20065;-81
2022/10/18 13:03:10;;;;;;;0.20;0.10;;;;;;;;;;5009038;28;20127;-81
2022/10/18 13:05:49;;;;;;;0.20;0.10;;;;;;;;;;5019986;28;20622;-84
2022/10/18 13:08:28;;;;;;;0.20;0.10;;;;;;;;;;4996043;28;20036;-82
2022/10/18 13:11:00;;;;;;;0.20;0.10;;;;;;;;;;5025318;28;20049;-84
2022/10/18 13:13:39;;;;;;;0.20;0.10;;;;;;;;;;5007904;28;20515;-82
2022/10/18 13:16:08;;;;;;;0.20;0.10;;;;;;;;;;5018717;28;20038;-81
2022/10/18 13:18:43;;;;;;;0.20;0.10;;;;;;;;;;5021846;28;20482;-81
2022/10/18 13:21:15;;;;;;;0.20;0.10;;;;;;;;;;5024662;28;20037;-80
2022/10/18 13:23:53;;;;;;;0.20;0.10;;;;;;;;;;4991283;28;20457;-81
2022/10/18 13:26:26;;;;;;;0.20;0.10;;;;;;;;;;4997883;28;20489;-82
2022/10/18 13:29:10;;;;;;;0.20;0.10;;;;;;;;;;5025197;28;20044;-82
2022/10/18 13:31:36;;;;;;;0.20;0.10;;;;;;;;;;5022231;28;20490;-81
2022/10/18 13:34:21;;;;;;;0.20;0.15;;;;;;;;;;5007906;28;20029;-82
2022/10/18 13:37:06;;;;;;;0.20;0.10;;;;;;;;;;5020597;28;20044;-80
2022/10/18 13:39:32;;;;;;;0.20;0.10;;;;;;;;;;4991175;28;20042;-83
2022/10/18 13:41:59;;;;;;;0.20;0.10;;;;;;;;;;4992150;28;20049;-83
2022/10/18 13:44:36;;;;;;;0.20;0.10;;;;;;;;;;5021985;28;20059;-83
2022/10/18 13:47:02;;;;;;;0.20;0.10;;;;;;;;;;5004202;28;20168;-82
2022/10/18 13:49:40;;;;;;;0.20;0.10;;;;;;;;;;4994795;28;20034;-82
2022/10/18 13:52:15;;;;;;;0.20;0.10;;;;;;;;;;5057817;22;20045;-84
2022/10/18 13:55:05;;;;;;;0.20;0.10;;;;;;;;;;5022805;28;20045;-85
2022/10/18 13:57:44;;;;;;;0.20;0.10;;;;;;;;;;5023348;28;20036;-85
2022/10/18 14:00:19;;;;;;;0.20;0.10;;;;;;;;;;5036939;28;20045;-83
2022/10/18 14:03:03;;;;;;;0.20;0.10;;;;;;;;;;5018483;28;20111;-86
2022/10/18 14:05:41;;;;;;;0.20;0.10;;;;;;;;;;5000547;28;20049;-86
2022/10/18 14:08:15;;;;;;;0.20;0.10;;;;;;;;;;4991000;28;20133;-86
2022/10/18 14:10:45;;;;;;;0.20;0.10;;;;;;;;;;4988809;28;20042;-84
2022/10/18 14:13:20;;;;;;;0.20;0.10;;;;;;;;;;5025703;28;20041;-85
2022/10/18 14:15:52;;;;;;;0.20;0.10;;;;;;;;;;4989714;28;20045;-84
2022/10/18 14:18:29;;;;;;;0.20;0.10;;;;;;;;;;5005153;28;20050;-84
2022/10/18 14:21:22;;;;;;;0.20;0.10;;;;;;;;;;5027865;28;20061;-85
2022/10/18 14:23:45;;;;;;;0.20;0.10;;;;;;;;;;5015568;28;20042;-84
2022/10/18 14:26:13;;;;;;;0.20;0.10;;;;;;;;;;5009107;28;20034;-86
2022/10/18 14:28:42;;;;;;;0.20;0.10;;;;;;;;;;5004711;28;20041;-86
2022/10/18 14:31:13;;;;;;;0.20;0.10;;;;;;;;;;4983091;28;20092;-86
2022/10/18 14:33:43;;;;;;;0.20;0.10;;;;;;;;;;5010332;28;20052;-86
2022/10/18 14:36:09;;;;;;;0.20;0.10;;;;;;;;;;4994022;28;20115;-85
2022/10/18 14:38:37;;;;;;;0.20;0.10;;;;;;;;;;4994723;28;20526;-88
2022/10/18 14:41:15;;;;;;;0.20;0.10;;;;;;;;;;4993614;28;20073;-85
2022/10/18 14:43:49;;;;;;;0.20;0.10;;;;;;;;;;4997404;28;20053;-88
2022/10/18 14:46:17;;;;;;;0.20;0.10;;;;;;;;;;4995029;28;20474;-85
2022/10/18 14:48:51;;;;;;;0.20;0.10;;;;;;;;;;4998847;28;20046;-84
2022/10/18 14:51:17;;;;;;;0.20;0.10;;;;;;;;;;4991644;28;20045;-87
2022/10/18 14:53:43;;;;;;;0.20;0.10;;;;;;;;;;4995763;28;20034;-84
2022/10/18 14:56:19;;;;;;;0.20;0.10;;;;;;;;;;4998008;28;20048;-86
2022/10/18 14:58:46;;;;;;;0.20;0.10;;;;;;;;;;4998630;28;20531;-86
2022/10/18 15:01:20;;;;;;;0.20;0.10;;;;;;;;;;4996103;28;20038;-85
2022/10/18 15:03:46;;;;;;;0.20;0.10;;;;;;;;;;5003886;28;20489;-87
2022/10/18 15:06:18;;;;;;;0.20;0.10;;;;;;;;;;4992910;28;20410;-86
2022/10/18 15:08:44;;;;;;;0.20;0.10;;;;;;;;;;5027095;28;20407;-86
2022/10/18 15:11:12;;;;;;;0.20;0.10;;;;;;;;;;5010630;28;20163;-86
2022/10/18 15:13:44;;;;;;;0.20;0.10;;;;;;;;;;5010280;28;20069;-85
2022/10/18 15:16:17;;;;;;;0.20;0.10;;;;;;;;;;5012262;28;20042;-86
2022/10/18 15:18:43;;;;;;;0.20;0.10;;;;;;;;;;4996100;28;20045;-86
2022/10/18 15:21:23;;;;;;;0.20;0.10;;;;;;;;;;4996355;28;20041;-84
2022/10/18 15:23:50;;;;;;;1.85;1.20;;;;;;;;;;5019650;28;20125;-88
2022/10/18 15:26:29;;;;;;;0.20;0.10;;;;;;;;;;5000957;28;20125;-86
2022/10/18 15:28:57;;;;;;;0.20;0.10;;;;;;;;;;5011191;28;20311;-85